sensor_id;sensor_type;location;lat;lon;timestamp;pressure;altitude;pressure_sealevel;temperature;humidity
60646;BME280;46462;32.608;-117.032;2024-03-02T00:00:08;99816.42;;;20.17;46.63
60646;BME280;46462;32.608;-117.032;2024-03-02T00:02:40;99819.82;;;20.49;46.00
60646;BME280;46462;32.608;-117.032;2024-03-02T00:05:08;99819.68;;;20.41;46.16
60646;BME280;46462;32.608;-117.032;2024-03-02T00:07:39;99817.70;;;20.22;46.59
60646;BME280;46462;32.608;-117.032;2024-03-02T00:10:18;99818.13;;;20.15;46.92
60646;BME280;46462;32.608;-117.032;2024-03-02T00:12:40;99820.21;;;20.31;46.59
60646;BME280;46462;32.608;-117.032;2024-03-02T00:15:22;99822.03;;;20.16;47.18
60646;BME280;46462;32.608;-117.032;2024-03-02T00:17:41;99820.24;;;20.11;47.46
60646;BME280;46462;32.608;-117.032;2024-03-02T00:20:16;99817.92;;;20.35;47.12
60646;BME280;46462;32.608;-117.032;2024-03-02T00:22:42;99819.01;;;20.23;47.53
60646;BME280;46462;32.608;-117.032;2024-03-02T00:25:13;99822.13;;;20.04;48.29
60646;BME280;46462;32.608;-117.032;2024-03-02T00:27:48;99819.39;;;19.95;48.54
60646;BME280;46462;32.608;-117.032;2024-03-02T00:32:45;99794.74;;;22.04;43.97
60646;BME280;46462;32.608;-117.032;2024-03-02T00:35:16;99792.65;;;23.10;41.36
60646;BME280;46462;32.608;-117.032;2024-03-02T00:37:46;99796.11;;;23.69;39.89
60646;BME280;46462;32.608;-117.032;2024-03-02T00:40:18;99789.93;;;24.09;39.14
60646;BME280;46462;32.608;-117.032;2024-03-02T00:42:48;99792.72;;;24.30;38.66
60646;BME280;46462;32.608;-117.032;2024-03-02T00:45:19;99789.78;;;24.35;38.53
60646;BME280;46462;32.608;-117.032;2024-03-02T00:47:49;99788.33;;;24.38;38.78
60646;BME280;46462;32.608;-117.032;2024-03-02T00:50:20;99788.90;;;24.52;38.65
60646;BME280;46462;32.608;-117.032;2024-03-02T00:52:51;99785.36;;;24.44;38.96
60646;BME280;46462;32.608;-117.032;2024-03-02T00:55:21;99786.69;;;24.50;39.01
60646;BME280;46462;32.608;-117.032;2024-03-02T00:57:52;99794.89;;;24.61;38.85
60646;BME280;46462;32.608;-117.032;2024-03-02T01:00:23;99799.03;;;24.58;38.96
60646;BME280;46462;32.608;-117.032;2024-03-02T01:02:53;99804.80;;;24.63;38.94
60646;BME280;46462;32.608;-117.032;2024-03-02T01:05:24;99801.78;;;24.75;38.84
60646;BME280;46462;32.608;-117.032;2024-03-02T01:07:54;99801.18;;;24.87;38.66
60646;BME280;46462;32.608;-117.032;2024-03-02T01:10:25;99799.07;;;24.92;38.50
60646;BME280;46462;32.608;-117.032;2024-03-02T01:12:56;99796.52;;;24.97;38.47
60646;BME280;46462;32.608;-117.032;2024-03-02T01:15:27;99795.60;;;24.98;38.31
60646;BME280;46462;32.608;-117.032;2024-03-02T01:17:57;99793.77;;;25.01;38.26
60646;BME280;46462;32.608;-117.032;2024-03-02T01:20:28;99792.15;;;25.04;38.12
60646;BME280;46462;32.608;-117.032;2024-03-02T01:22:59;99790.77;;;25.06;37.95
60646;BME280;46462;32.608;-117.032;2024-03-02T01:25:29;99790.85;;;25.11;37.87
60646;BME280;46462;32.608;-117.032;2024-03-02T01:28:00;99799.38;;;25.14;37.93
60646;BME280;46462;32.608;-117.032;2024-03-02T01:30:31;99799.48;;;25.13;37.98
60646;BME280;46462;32.608;-117.032;2024-03-02T01:33:01;99798.62;;;25.15;38.05
60646;BME280;46462;32.608;-117.032;2024-03-02T01:35:32;99800.58;;;25.16;38.09
60646;BME280;46462;32.608;-117.032;2024-03-02T01:38:03;99804.18;;;25.16;38.14
60646;BME280;46462;32.608;-117.032;2024-03-02T01:40:34;99805.72;;;25.16;38.17
60646;BME280;46462;32.608;-117.032;2024-03-02T01:43:05;99805.10;;;25.19;38.35
60646;BME280;46462;32.608;-117.032;2024-03-02T01:45:36;99806.14;;;25.19;38.37
60646;BME280;46462;32.608;-117.032;2024-03-02T01:48:06;99812.79;;;25.20;38.20
60646;BME280;46462;32.608;-117.032;2024-03-02T01:50:36;99817.40;;;25.18;38.20
60646;BME280;46462;32.608;-117.032;2024-03-02T01:53:08;99815.70;;;25.18;38.20
60646;BME280;46462;32.608;-117.032;2024-03-02T01:55:38;99816.75;;;25.17;38.30
60646;BME280;46462;32.608;-117.032;2024-03-02T01:58:08;99818.97;;;25.16;38.40
60646;BME280;46462;32.608;-117.032;2024-03-02T02:00:39;99820.39;;;25.16;38.19
60646;BME280;46462;32.608;-117.032;2024-03-02T02:03:09;99820.97;;;25.13;38.22
60646;BME280;46462;32.608;-117.032;2024-03-02T02:05:42;99824.41;;;25.10;38.20
60646;BME280;46462;32.608;-117.032;2024-03-02T02:08:11;99828.57;;;25.09;38.10
60646;BME280;46462;32.608;-117.032;2024-03-02T02:10:42;99836.77;;;25.11;38.26
60646;BME280;46462;32.608;-117.032;2024-03-02T02:13:12;99844.56;;;25.10;38.37
60646;BME280;46462;32.608;-117.032;2024-03-02T02:15:43;99847.65;;;25.09;38.23
60646;BME280;46462;32.608;-117.032;2024-03-02T02:18:14;99844.32;;;25.10;38.22
60646;BME280;46462;32.608;-117.032;2024-03-02T02:20:45;99840.32;;;25.07;38.33
60646;BME280;46462;32.608;-117.032;2024-03-02T02:23:15;99841.82;;;25.06;38.35
60646;BME280;46462;32.608;-117.032;2024-03-02T02:25:45;99840.82;;;25.05;38.36
60646;BME280;46462;32.608;-117.032;2024-03-02T02:28:16;99841.32;;;25.05;38.44
60646;BME280;46462;32.608;-117.032;2024-03-02T02:30:47;99844.43;;;25.04;38.42
60646;BME280;46462;32.608;-117.032;2024-03-02T02:33:18;99844.41;;;25.04;38.41
60646;BME280;46462;32.608;-117.032;2024-03-02T02:35:48;99844.52;;;25.02;38.43
60646;BME280;46462;32.608;-117.032;2024-03-02T02:38:19;99841.30;;;24.96;38.52
60646;BME280;46462;32.608;-117.032;2024-03-02T02:40:50;99845.73;;;24.96;38.52
60646;BME280;46462;32.608;-117.032;2024-03-02T02:43:20;99845.46;;;24.95;38.62
60646;BME280;46462;32.608;-117.032;2024-03-02T02:45:51;99847.11;;;24.97;38.43
60646;BME280;46462;32.608;-117.032;2024-03-02T02:48:22;99846.57;;;25.02;38.33
60646;BME280;46462;32.608;-117.032;2024-03-02T02:50:52;99849.57;;;25.03;38.41
60646;BME280;46462;32.608;-117.032;2024-03-02T02:53:23;99853.48;;;25.04;38.35
60646;BME280;46462;32.608;-117.032;2024-03-02T02:55:54;99857.41;;;25.02;38.48
60646;BME280;46462;32.608;-117.032;2024-03-02T02:58:24;99862.58;;;25.03;38.43
60646;BME280;46462;32.608;-117.032;2024-03-02T03:00:55;99862.35;;;25.03;38.37
60646;BME280;46462;32.608;-117.032;2024-03-02T03:03:26;99865.44;;;25.01;38.37
60646;BME280;46462;32.608;-117.032;2024-03-02T03:05:56;99867.12;;;24.99;38.45
60646;BME280;46462;32.608;-117.032;2024-03-02T03:08:27;99867.91;;;24.98;38.49
60646;BME280;46462;32.608;-117.032;2024-03-02T03:10:58;99873.24;;;24.99;38.49
60646;BME280;46462;32.608;-117.032;2024-03-02T03:13:28;99879.68;;;24.99;38.54
60646;BME280;46462;32.608;-117.032;2024-03-02T03:15:59;99886.02;;;24.97;38.55
60646;BME280;46462;32.608;-117.032;2024-03-02T03:18:30;99886.04;;;24.97;38.47
60646;BME280;46462;32.608;-117.032;2024-03-02T03:21:00;99885.41;;;24.93;38.51
60646;BME280;46462;32.608;-117.032;2024-03-02T03:23:31;99884.22;;;24.94;38.59
60646;BME280;46462;32.608;-117.032;2024-03-02T03:26:02;99885.13;;;24.94;38.71
60646;BME280;46462;32.608;-117.032;2024-03-02T03:28:32;99885.11;;;24.93;38.67
60646;BME280;46462;32.608;-117.032;2024-03-02T03:31:03;99891.79;;;24.89;38.71
60646;BME280;46462;32.608;-117.032;2024-03-02T03:33:34;99894.07;;;24.90;38.68
60646;BME280;46462;32.608;-117.032;2024-03-02T03:36:05;99898.00;;;24.87;38.78
60646;BME280;46462;32.608;-117.032;2024-03-02T03:38:35;99903.53;;;24.85;38.74
60646;BME280;46462;32.608;-117.032;2024-03-02T03:41:06;99907.78;;;24.83;38.82
60646;BME280;46462;32.608;-117.032;2024-03-02T03:43:36;99904.90;;;24.82;38.88
60646;BME280;46462;32.608;-117.032;2024-03-02T03:46:07;99896.09;;;24.79;38.90
60646;BME280;46462;32.608;-117.032;2024-03-02T03:48:38;99894.79;;;24.77;38.98
60646;BME280;46462;32.608;-117.032;2024-03-02T03:51:08;99901.20;;;24.76;39.07
60646;BME280;46462;32.608;-117.032;2024-03-02T03:53:39;99897.71;;;24.73;39.06
60646;BME280;46462;32.608;-117.032;2024-03-02T03:56:10;99891.50;;;24.70;39.17
60646;BME280;46462;32.608;-117.032;2024-03-02T03:58:41;99891.84;;;24.69;39.13
60646;BME280;46462;32.608;-117.032;2024-03-02T04:01:11;99891.67;;;24.70;39.15
60646;BME280;46462;32.608;-117.032;2024-03-02T04:03:42;99889.96;;;24.69;39.28
60646;BME280;46462;32.608;-117.032;2024-03-02T04:06:12;99889.36;;;24.68;39.42
60646;BME280;46462;32.608;-117.032;2024-03-02T04:08:43;99891.00;;;24.65;39.40
60646;BME280;46462;32.608;-117.032;2024-03-02T04:11:14;99891.94;;;24.63;39.36
60646;BME280;46462;32.608;-117.032;2024-03-02T04:13:44;99895.27;;;24.60;39.58
60646;BME280;46462;32.608;-117.032;2024-03-02T04:16:15;99897.78;;;24.56;39.51
60646;BME280;46462;32.608;-117.032;2024-03-02T04:18:46;99897.78;;;24.57;39.60
60646;BME280;46462;32.608;-117.032;2024-03-02T04:21:17;99894.57;;;24.54;39.71
60646;BME280;46462;32.608;-117.032;2024-03-02T04:23:47;99892.06;;;24.52;39.75
60646;BME280;46462;32.608;-117.032;2024-03-02T04:26:18;99895.36;;;24.50;39.74
60646;BME280;46462;32.608;-117.032;2024-03-02T04:28:49;99902.04;;;24.45;39.73
60646;BME280;46462;32.608;-117.032;2024-03-02T04:31:19;99907.19;;;24.40;39.90
60646;BME280;46462;32.608;-117.032;2024-03-02T04:33:50;99911.98;;;24.39;39.98
60646;BME280;46462;32.608;-117.032;2024-03-02T04:36:21;99908.64;;;24.42;39.87
60646;BME280;46462;32.608;-117.032;2024-03-02T04:38:52;99898.76;;;24.49;39.77
60646;BME280;46462;32.608;-117.032;2024-03-02T04:41:22;99892.32;;;24.51;39.66
60646;BME280;46462;32.608;-117.032;2024-03-02T04:43:53;99886.26;;;24.52;39.73
60646;BME280;46462;32.608;-117.032;2024-03-02T04:46:23;99885.00;;;24.54;39.69
60646;BME280;46462;32.608;-117.032;2024-03-02T04:48:54;99889.72;;;24.60;39.54
60646;BME280;46462;32.608;-117.032;2024-03-02T04:51:25;99893.88;;;24.57;39.63
60646;BME280;46462;32.608;-117.032;2024-03-02T04:53:55;99900.09;;;24.53;39.73
60646;BME280;46462;32.608;-117.032;2024-03-02T04:56:26;99904.27;;;24.49;39.69
60646;BME280;46462;32.608;-117.032;2024-03-02T04:58:57;99905.04;;;24.48;39.73
60646;BME280;46462;32.608;-117.032;2024-03-02T05:01:27;99910.85;;;24.46;39.96
60646;BME280;46462;32.608;-117.032;2024-03-02T05:03:58;99912.53;;;24.41;39.99
60646;BME280;46462;32.608;-117.032;2024-03-02T05:06:29;99916.57;;;24.40;39.98
60646;BME280;46462;32.608;-117.032;2024-03-02T05:09:00;99925.19;;;24.41;39.92
60646;BME280;46462;32.608;-117.032;2024-03-02T05:11:30;99929.40;;;24.40;39.97
60646;BME280;46462;32.608;-117.032;2024-03-02T05:14:01;99935.30;;;24.35;40.07
60646;BME280;46462;32.608;-117.032;2024-03-02T05:16:34;99934.17;;;24.34;40.04
60646;BME280;46462;32.608;-117.032;2024-03-02T05:19:03;99934.34;;;24.34;39.96
60646;BME280;46462;32.608;-117.032;2024-03-02T05:21:33;99938.61;;;24.35;40.01
60646;BME280;46462;32.608;-117.032;2024-03-02T05:24:04;99943.50;;;24.34;39.90
60646;BME280;46462;32.608;-117.032;2024-03-02T05:26:35;99944.21;;;24.33;39.96
60646;BME280;46462;32.608;-117.032;2024-03-02T05:29:05;99944.70;;;24.28;39.99
60646;BME280;46462;32.608;-117.032;2024-03-02T05:31:36;99948.41;;;24.31;40.06
60646;BME280;46462;32.608;-117.032;2024-03-02T05:34:07;99946.65;;;24.22;40.32
60646;BME280;46462;32.608;-117.032;2024-03-02T05:36:37;99943.28;;;24.23;40.24
60646;BME280;46462;32.608;-117.032;2024-03-02T05:39:08;99944.37;;;24.23;40.36
60646;BME280;46462;32.608;-117.032;2024-03-02T05:41:39;99946.07;;;24.12;40.49
60646;BME280;46462;32.608;-117.032;2024-03-02T05:44:09;99944.74;;;24.12;40.47
60646;BME280;46462;32.608;-117.032;2024-03-02T05:46:40;99942.44;;;24.10;40.57
60646;BME280;46462;32.608;-117.032;2024-03-02T05:49:11;99941.87;;;24.14;40.45
60646;BME280;46462;32.608;-117.032;2024-03-02T05:51:41;99948.96;;;24.07;40.59
60646;BME280;46462;32.608;-117.032;2024-03-02T05:54:12;99952.05;;;24.07;40.61
60646;BME280;46462;32.608;-117.032;2024-03-02T05:56:43;99947.36;;;24.00;40.74
60646;BME280;46462;32.608;-117.032;2024-03-02T05:59:14;99941.66;;;23.90;40.90
60646;BME280;46462;32.608;-117.032;2024-03-02T06:01:45;99934.04;;;23.93;40.80
60646;BME280;46462;32.608;-117.032;2024-03-02T06:04:15;99932.09;;;23.87;41.04
60646;BME280;46462;32.608;-117.032;2024-03-02T06:06:46;99928.33;;;23.84;41.11
60646;BME280;46462;32.608;-117.032;2024-03-02T06:09:16;99928.66;;;23.77;41.14
60646;BME280;46462;32.608;-117.032;2024-03-02T06:11:47;99930.17;;;23.79;41.15
60646;BME280;46462;32.608;-117.032;2024-03-02T06:14:18;99933.61;;;23.85;40.97
60646;BME280;46462;32.608;-117.032;2024-03-02T06:16:48;99930.13;;;23.93;40.77
60646;BME280;46462;32.608;-117.032;2024-03-02T06:19:19;99924.56;;;23.96;40.65
60646;BME280;46462;32.608;-117.032;2024-03-02T06:21:50;99921.81;;;23.87;40.93
60646;BME280;46462;32.608;-117.032;2024-03-02T06:24:21;99922.00;;;23.76;41.13
60646;BME280;46462;32.608;-117.032;2024-03-02T06:26:51;99925.97;;;23.91;40.71
60646;BME280;46462;32.608;-117.032;2024-03-02T06:29:22;99926.14;;;23.90;40.79
60646;BME280;46462;32.608;-117.032;2024-03-02T06:31:53;99920.90;;;24.01;40.51
60646;BME280;46462;32.608;-117.032;2024-03-02T06:34:23;99917.79;;;24.03;40.49
60646;BME280;46462;32.608;-117.032;2024-03-02T06:36:54;99913.71;;;23.97;40.66
60646;BME280;46462;32.608;-117.032;2024-03-02T06:39:25;99914.55;;;23.97;40.71
60646;BME280;46462;32.608;-117.032;2024-03-02T06:41:55;99910.18;;;24.03;40.61
60646;BME280;46462;32.608;-117.032;2024-03-02T06:44:26;99901.37;;;23.99;40.70
60646;BME280;46462;32.608;-117.032;2024-03-02T06:46:57;99894.71;;;23.99;40.67
60646;BME280;46462;32.608;-117.032;2024-03-02T06:49:28;99893.50;;;23.95;40.81
60646;BME280;46462;32.608;-117.032;2024-03-02T06:51:58;99888.72;;;23.93;40.83
60646;BME280;46462;32.608;-117.032;2024-03-02T06:54:29;99887.65;;;23.83;41.05
60646;BME280;46462;32.608;-117.032;2024-03-02T06:57:00;99885.33;;;23.76;41.18
60646;BME280;46462;32.608;-117.032;2024-03-02T06:59:30;99881.11;;;23.64;41.51
60646;BME280;46462;32.608;-117.032;2024-03-02T07:02:01;99882.15;;;23.66;41.42
60646;BME280;46462;32.608;-117.032;2024-03-02T07:04:32;99879.78;;;23.65;41.44
60646;BME280;46462;32.608;-117.032;2024-03-02T07:07:03;99877.60;;;23.70;41.27
60646;BME280;46462;32.608;-117.032;2024-03-02T07:09:34;99879.27;;;23.71;41.29
60646;BME280;46462;32.608;-117.032;2024-03-02T07:12:04;99878.19;;;23.75;41.15
60646;BME280;46462;32.608;-117.032;2024-03-02T07:14:35;99871.23;;;23.72;41.30
60646;BME280;46462;32.608;-117.032;2024-03-02T07:17:06;99872.84;;;23.69;41.30
60646;BME280;46462;32.608;-117.032;2024-03-02T07:19:36;99873.40;;;23.54;41.72
60646;BME280;46462;32.608;-117.032;2024-03-02T07:22:07;99877.90;;;23.63;41.43
60646;BME280;46462;32.608;-117.032;2024-03-02T07:24:40;99880.81;;;23.69;41.30
60646;BME280;46462;32.608;-117.032;2024-03-02T07:27:08;99880.39;;;23.69;41.24
60646;BME280;46462;32.608;-117.032;2024-03-02T07:29:39;99877.59;;;23.65;41.34
60646;BME280;46462;32.608;-117.032;2024-03-02T07:32:10;99874.17;;;23.77;41.07
60646;BME280;46462;32.608;-117.032;2024-03-02T07:34:40;99874.22;;;23.62;41.46
60646;BME280;46462;32.608;-117.032;2024-03-02T07:37:11;99875.43;;;23.71;41.34
60646;BME280;46462;32.608;-117.032;2024-03-02T07:39:42;99878.25;;;23.61;41.64
60646;BME280;46462;32.608;-117.032;2024-03-02T07:42:12;99873.24;;;23.64;41.51
60646;BME280;46462;32.608;-117.032;2024-03-02T07:44:44;99877.10;;;23.67;41.40
60646;BME280;46462;32.608;-117.032;2024-03-02T07:47:14;99880.87;;;23.64;41.40
60646;BME280;46462;32.608;-117.032;2024-03-02T07:49:45;99883.24;;;23.67;41.22
60646;BME280;46462;32.608;-117.032;2024-03-02T07:52:15;99876.98;;;23.64;41.33
60646;BME280;46462;32.608;-117.032;2024-03-02T07:54:46;99873.77;;;23.44;41.73
60646;BME280;46462;32.608;-117.032;2024-03-02T07:57:17;99870.38;;;23.32;42.00
60646;BME280;46462;32.608;-117.032;2024-03-02T07:59:48;99859.84;;;23.30;42.09
60646;BME280;46462;32.608;-117.032;2024-03-02T08:02:18;99857.23;;;23.32;42.03
60646;BME280;46462;32.608;-117.032;2024-03-02T08:04:49;99857.57;;;23.28;42.15
60646;BME280;46462;32.608;-117.032;2024-03-02T08:07:19;99856.23;;;23.27;42.18
60646;BME280;46462;32.608;-117.032;2024-03-02T08:09:50;99859.16;;;23.20;42.32
60646;BME280;46462;32.608;-117.032;2024-03-02T08:12:21;99861.97;;;23.15;42.43
60646;BME280;46462;32.608;-117.032;2024-03-02T08:14:52;99860.23;;;23.01;42.75
60646;BME280;46462;32.608;-117.032;2024-03-02T08:17:22;99856.93;;;23.08;42.55
60646;BME280;46462;32.608;-117.032;2024-03-02T08:19:53;99855.41;;;23.07;42.60
60646;BME280;46462;32.608;-117.032;2024-03-02T08:22:24;99856.46;;;22.99;42.69
60646;BME280;46462;32.608;-117.032;2024-03-02T08:24:55;99856.05;;;22.96;42.57
60646;BME280;46462;32.608;-117.032;2024-03-02T08:27:25;99857.62;;;23.04;42.53
60646;BME280;46462;32.608;-117.032;2024-03-02T08:29:56;99861.64;;;23.19;42.15
60646;BME280;46462;32.608;-117.032;2024-03-02T08:32:27;99865.46;;;23.14;42.28
60646;BME280;46462;32.608;-117.032;2024-03-02T08:34:57;99868.08;;;22.97;42.69
60646;BME280;46462;32.608;-117.032;2024-03-02T08:37:28;99874.28;;;22.95;42.71
60646;BME280;46462;32.608;-117.032;2024-03-02T08:39:59;99870.95;;;22.83;42.97
60646;BME280;46462;32.608;-117.032;2024-03-02T08:42:29;99873.04;;;22.90;42.87
60646;BME280;46462;32.608;-117.032;2024-03-02T08:45:00;99869.39;;;23.04;42.42
60646;BME280;46462;32.608;-117.032;2024-03-02T08:47:31;99864.81;;;23.04;42.37
60646;BME280;46462;32.608;-117.032;2024-03-02T08:50:02;99858.09;;;23.16;42.19
60646;BME280;46462;32.608;-117.032;2024-03-02T08:52:32;99857.12;;;23.16;42.13
60646;BME280;46462;32.608;-117.032;2024-03-02T08:55:07;99856.10;;;23.15;42.11
60646;BME280;46462;32.608;-117.032;2024-03-02T08:57:37;99853.65;;;23.26;41.91
60646;BME280;46462;32.608;-117.032;2024-03-02T09:00:08;99852.64;;;23.25;41.87
60646;BME280;46462;32.608;-117.032;2024-03-02T09:02:37;99850.68;;;23.18;41.96
60646;BME280;46462;32.608;-117.032;2024-03-02T09:05:08;99847.94;;;23.17;42.09
60646;BME280;46462;32.608;-117.032;2024-03-02T09:07:38;99852.03;;;23.16;42.20
60646;BME280;46462;32.608;-117.032;2024-03-02T09:10:09;99855.33;;;23.07;42.25
60646;BME280;46462;32.608;-117.032;2024-03-02T09:12:39;99853.22;;;23.03;42.50
60646;BME280;46462;32.608;-117.032;2024-03-02T09:15:10;99852.08;;;23.01;42.50
60646;BME280;46462;32.608;-117.032;2024-03-02T09:17:41;99847.40;;;22.98;42.61
60646;BME280;46462;32.608;-117.032;2024-03-02T09:20:12;99849.77;;;22.97;42.60
60646;BME280;46462;32.608;-117.032;2024-03-02T09:22:42;99845.64;;;22.98;42.53
60646;BME280;46462;32.608;-117.032;2024-03-02T09:25:13;99843.24;;;23.04;42.32
60646;BME280;46462;32.608;-117.032;2024-03-02T09:27:44;99840.99;;;23.00;42.43
60646;BME280;46462;32.608;-117.032;2024-03-02T09:30:15;99838.43;;;22.96;42.53
60646;BME280;46462;32.608;-117.032;2024-03-02T09:32:45;99836.30;;;22.93;42.69
60646;BME280;46462;32.608;-117.032;2024-03-02T09:35:16;99833.50;;;22.88;42.83
60646;BME280;46462;32.608;-117.032;2024-03-02T09:37:47;99828.25;;;22.88;42.74
60646;BME280;46462;32.608;-117.032;2024-03-02T09:40:17;99826.36;;;23.00;42.53
60646;BME280;46462;32.608;-117.032;2024-03-02T09:42:48;99822.86;;;22.80;42.98
60646;BME280;46462;32.608;-117.032;2024-03-02T09:45:20;99821.15;;;22.69;43.32
60646;BME280;46462;32.608;-117.032;2024-03-02T09:47:50;99814.72;;;22.72;43.21
60646;BME280;46462;32.608;-117.032;2024-03-02T09:50:20;99809.04;;;22.81;42.91
60646;BME280;46462;32.608;-117.032;2024-03-02T09:52:51;99799.97;;;22.85;42.87
60646;BME280;46462;32.608;-117.032;2024-03-02T09:55:22;99794.50;;;22.86;42.88
60646;BME280;46462;32.608;-117.032;2024-03-02T09:57:53;99789.04;;;22.90;42.73
60646;BME280;46462;32.608;-117.032;2024-03-02T10:00:23;99787.23;;;22.93;42.71
60646;BME280;46462;32.608;-117.032;2024-03-02T10:02:54;99787.34;;;22.87;42.87
60646;BME280;46462;32.608;-117.032;2024-03-02T10:05:26;99784.81;;;22.82;42.90
60646;BME280;46462;32.608;-117.032;2024-03-02T10:08:00;99787.66;;;22.86;42.89
60646;BME280;46462;32.608;-117.032;2024-03-02T10:10:35;99791.79;;;22.90;42.85
60646;BME280;46462;32.608;-117.032;2024-03-02T10:13:04;99790.57;;;22.86;42.86
60646;BME280;46462;32.608;-117.032;2024-03-02T10:15:28;99788.32;;;22.82;42.91
60646;BME280;46462;32.608;-117.032;2024-03-02T10:17:58;99785.06;;;22.76;42.96
60646;BME280;46462;32.608;-117.032;2024-03-02T10:20:29;99779.67;;;22.72;43.09
60646;BME280;46462;32.608;-117.032;2024-03-02T10:25:31;99766.11;;;22.75;43.04
60646;BME280;46462;32.608;-117.032;2024-03-02T10:28:01;99761.53;;;22.71;43.05
60646;BME280;46462;32.608;-117.032;2024-03-02T10:30:33;99756.88;;;22.75;43.10
60646;BME280;46462;32.608;-117.032;2024-03-02T10:33:03;99745.79;;;22.74;43.14
60646;BME280;46462;32.608;-117.032;2024-03-02T10:35:34;99737.05;;;22.65;43.35
60646;BME280;46462;32.608;-117.032;2024-03-02T10:38:05;99726.05;;;22.63;43.41
60646;BME280;46462;32.608;-117.032;2024-03-02T10:40:35;99725.35;;;22.71;43.17
60646;BME280;46462;32.608;-117.032;2024-03-02T10:43:06;99717.79;;;22.68;43.31
60646;BME280;46462;32.608;-117.032;2024-03-02T10:45:36;99709.23;;;22.69;43.27
60646;BME280;46462;32.608;-117.032;2024-03-02T10:48:08;99702.41;;;22.65;43.50
60646;BME280;46462;32.608;-117.032;2024-03-02T10:50:38;99699.01;;;22.65;43.39
60646;BME280;46462;32.608;-117.032;2024-03-02T10:53:09;99694.92;;;22.72;43.19
60646;BME280;46462;32.608;-117.032;2024-03-02T10:55:39;99688.68;;;22.74;42.97
60646;BME280;46462;32.608;-117.032;2024-03-02T10:58:13;99690.11;;;22.78;43.03
60646;BME280;46462;32.608;-117.032;2024-03-02T11:00:42;99697.90;;;22.74;43.07
60646;BME280;46462;32.608;-117.032;2024-03-02T11:03:13;99700.34;;;22.70;43.30
60646;BME280;46462;32.608;-117.032;2024-03-02T11:05:44;99694.42;;;22.68;43.26
60646;BME280;46462;32.608;-117.032;2024-03-02T11:08:16;99691.58;;;22.77;43.06
60646;BME280;46462;32.608;-117.032;2024-03-02T11:10:50;99691.11;;;22.68;43.20
60646;BME280;46462;32.608;-117.032;2024-03-02T11:13:15;99693.32;;;22.64;43.38
60646;BME280;46462;32.608;-117.032;2024-03-02T11:15:45;99689.10;;;22.61;43.30
60646;BME280;46462;32.608;-117.032;2024-03-02T11:18:16;99687.21;;;22.68;43.16
60646;BME280;46462;32.608;-117.032;2024-03-02T11:20:47;99680.45;;;22.67;43.30
60646;BME280;46462;32.608;-117.032;2024-03-02T11:23:18;99679.28;;;22.66;43.28
60646;BME280;46462;32.608;-117.032;2024-03-02T11:25:48;99673.01;;;22.60;43.48
60646;BME280;46462;32.608;-117.032;2024-03-02T11:28:34;99666.20;;;22.64;43.38
60646;BME280;46462;32.608;-117.032;2024-03-02T11:30:51;99662.74;;;22.55;43.62
60646;BME280;46462;32.608;-117.032;2024-03-02T11:33:25;99648.71;;;22.64;43.37
60646;BME280;46462;32.608;-117.032;2024-03-02T11:35:51;99648.64;;;22.62;43.43
60646;BME280;46462;32.608;-117.032;2024-03-02T11:38:22;99648.55;;;22.65;43.33
60646;BME280;46462;32.608;-117.032;2024-03-02T11:40:53;99645.64;;;22.61;43.35
60646;BME280;46462;32.608;-117.032;2024-03-02T11:43:24;99639.71;;;22.55;43.27
60646;BME280;46462;32.608;-117.032;2024-03-02T11:45:58;99638.41;;;22.64;43.32
60646;BME280;46462;32.608;-117.032;2024-03-02T11:48:25;99644.34;;;22.52;43.31
60646;BME280;46462;32.608;-117.032;2024-03-02T11:50:59;99649.61;;;22.51;43.70
60646;BME280;46462;32.608;-117.032;2024-03-02T11:53:28;99656.15;;;22.54;43.52
60646;BME280;46462;32.608;-117.032;2024-03-02T11:55:58;99659.36;;;22.53;43.51
60646;BME280;46462;32.608;-117.032;2024-03-02T11:58:28;99655.50;;;22.61;43.34
60646;BME280;46462;32.608;-117.032;2024-03-02T12:00:59;99657.46;;;22.55;43.38
60646;BME280;46462;32.608;-117.032;2024-03-02T12:03:29;99662.59;;;22.54;43.48
60646;BME280;46462;32.608;-117.032;2024-03-02T12:06:00;99665.83;;;22.45;43.76
60646;BME280;46462;32.608;-117.032;2024-03-02T12:08:31;99664.03;;;22.32;44.02
60646;BME280;46462;32.608;-117.032;2024-03-02T12:11:02;99664.48;;;22.32;44.13
60646;BME280;46462;32.608;-117.032;2024-03-02T12:13:33;99673.53;;;22.20;44.43
60646;BME280;46462;32.608;-117.032;2024-03-02T12:16:04;99676.76;;;22.21;44.20
60646;BME280;46462;32.608;-117.032;2024-03-02T12:18:34;99671.68;;;22.24;44.26
60646;BME280;46462;32.608;-117.032;2024-03-02T12:21:05;99666.40;;;22.25;44.18
60646;BME280;46462;32.608;-117.032;2024-03-02T12:23:35;99664.31;;;22.27;44.25
60646;BME280;46462;32.608;-117.032;2024-03-02T12:26:07;99666.71;;;22.19;44.38
60646;BME280;46462;32.608;-117.032;2024-03-02T12:28:37;99669.93;;;22.20;44.29
60646;BME280;46462;32.608;-117.032;2024-03-02T12:31:08;99671.06;;;22.08;44.57
60646;BME280;46462;32.608;-117.032;2024-03-02T12:33:38;99667.43;;;22.20;44.33
60646;BME280;46462;32.608;-117.032;2024-03-02T12:36:10;99660.85;;;22.31;44.07
60646;BME280;46462;32.608;-117.032;2024-03-02T12:38:44;99661.44;;;22.28;44.15
60646;BME280;46462;32.608;-117.032;2024-03-02T12:41:11;99662.61;;;22.24;44.14
60646;BME280;46462;32.608;-117.032;2024-03-02T12:43:41;99666.98;;;22.36;43.88
60646;BME280;46462;32.608;-117.032;2024-03-02T12:46:12;99666.88;;;22.39;43.89
60646;BME280;46462;32.608;-117.032;2024-03-02T12:48:43;99662.45;;;22.33;43.91
60646;BME280;46462;32.608;-117.032;2024-03-02T12:51:14;99657.55;;;22.40;43.83